Ostrava, Czech Republic

6:13 PM CET on December 04, 2016 (GMT +0100)
Lubina | | Change Station

Elev 1010 ft 49.61 °N, 18.17 °E | Updated 27 seconds ago

Mist
Mist
27.3 °F
Feels Like 27 °F
N
2.4
Wind Variable Wind from SE
Gusts 5.4 mph

Today
High -- | Low -- °F
--% Chance of Precip.
Yesterday
High -- | Low -- °F
Precip. -- in
Pressure 30.45 in
Visibility 2.5 miles
Clouds
Windchill 27 °F
Dew Point 20 °F
Humidity 75%
Rainfall 0.00 in
Snow Depth Not available.
7:27 AM 3:48 PM
Waxing Crescent, 24% visible
METAR LKMT 041700Z 21002KT 4000 BR NSC M03/M04 Q1031 BECMG 3000 BR
Pressure 30.45 in
Visibility 2.5 miles
Clouds
Windchill 27 °F
Dew Point 20 °F
Humidity 75%
Rainfall 0.00 in
Snow Depth Not available.
7:27 AM 3:48 PM
Waxing Crescent, 24% visible
METAR LKMT 041700Z 21002KT 4000 BR NSC M03/M04 Q1031 BECMG 3000 BR

10-Day Weather Forecast

×

Almanac

Astronomy

Dec. 04, 2016 Rise Set
Actual Time
Civil Twilight
Nautical Twilight
Astronomical Twilight
Moon
Length of Visible Light
Length of Day
Tomorrow will be .
, % of the Moon is Illuminated

Today's Extremes

Country Highs Country Lows

Community

WunderPhotos

Upload Photos

1,955,631 photos uploaded!

WunderBlog® & News

Nearby

Air Quality

  Air Quality AQ Index Pollutant
Not available.

Snow Depth

Station Depth Elevation

Earthquake Activity

City Distance Mag. Time & Date
Minimum magnitude displayed is 2.5.

Coastal Water Temperatures

Place Temperature

Stations

Nearby Weather Stations

Station Location Temp. Windchill Dew Point Humidity Wind Precip. Elev Updated Type